sensor_id;sensor_type;location;lat;lon;timestamp;P1;durP1;ratioP1;P2;durP2;ratioP2
22060;SDS011;11194;48.092;-1.382;2022-12-07T00:00:30;34.47;;;19.17;;
22060;SDS011;11194;48.092;-1.382;2022-12-07T00:02:56;38.40;;;20.02;;
22060;SDS011;11194;48.092;-1.382;2022-12-07T00:05:22;39.00;;;20.52;;
22060;SDS011;11194;48.092;-1.382;2022-12-07T00:07:48;34.67;;;19.48;;
22060;SDS011;11194;48.092;-1.382;2022-12-07T00:10:15;39.85;;;20.80;;
22060;SDS011;11194;48.092;-1.382;2022-12-07T00:12:41;38.20;;;22.10;;
22060;SDS011;11194;48.092;-1.382;2022-12-07T00:15:07;39.78;;;21.98;;
22060;SDS011;11194;48.092;-1.382;2022-12-07T00:17:33;39.92;;;22.02;;
22060;SDS011;11194;48.092;-1.382;2022-12-07T00:19:59;44.90;;;23.65;;
22060;SDS011;11194;48.092;-1.382;2022-12-07T00:22:25;39.33;;;21.05;;
22060;SDS011;11194;48.092;-1.382;2022-12-07T00:24:51;38.15;;;19.10;;
22060;SDS011;11194;48.092;-1.382;2022-12-07T00:27:17;39.58;;;19.48;;
22060;SDS011;11194;48.092;-1.382;2022-12-07T00:29:43;37.38;;;19.02;;
22060;SDS011;11194;48.092;-1.382;2022-12-07T00:32:09;39.40;;;19.23;;
22060;SDS011;11194;48.092;-1.382;2022-12-07T00:34:35;41.08;;;19.30;;
22060;SDS011;11194;48.092;-1.382;2022-12-07T00:37:01;36.30;;;18.67;;
22060;SDS011;11194;48.092;-1.382;2022-12-07T00:39:27;36.97;;;19.30;;
22060;SDS011;11194;48.092;-1.382;2022-12-07T00:41:53;33.22;;;17.60;;
22060;SDS011;11194;48.092;-1.382;2022-12-07T00:44:19;43.75;;;19.83;;
22060;SDS011;11194;48.092;-1.382;2022-12-07T00:46:46;38.63;;;20.00;;
22060;SDS011;11194;48.092;-1.382;2022-12-07T00:49:12;41.78;;;20.95;;
22060;SDS011;11194;48.092;-1.382;2022-12-07T00:51:38;41.53;;;19.30;;
22060;SDS011;11194;48.092;-1.382;2022-12-07T00:54:04;40.17;;;19.40;;
22060;SDS011;11194;48.092;-1.382;2022-12-07T00:56:30;41.70;;;19.15;;
22060;SDS011;11194;48.092;-1.382;2022-12-07T00:59:01;42.20;;;20.63;;
22060;SDS011;11194;48.092;-1.382;2022-12-07T01:01:28;46.38;;;24.08;;
22060;SDS011;11194;48.092;-1.382;2022-12-07T01:03:54;39.92;;;21.60;;
22060;SDS011;11194;48.092;-1.382;2022-12-07T01:06:21;37.80;;;18.75;;
22060;SDS011;11194;48.092;-1.382;2022-12-07T01:08:47;39.67;;;19.80;;
22060;SDS011;11194;48.092;-1.382;2022-12-07T01:11:15;36.95;;;18.75;;
22060;SDS011;11194;48.092;-1.382;2022-12-07T01:13:41;35.33;;;17.15;;
22060;SDS011;11194;48.092;-1.382;2022-12-07T01:16:07;39.55;;;18.48;;
22060;SDS011;11194;48.092;-1.382;2022-12-07T01:18:35;35.03;;;18.33;;
22060;SDS011;11194;48.092;-1.382;2022-12-07T01:21:02;50.08;;;24.70;;
22060;SDS011;11194;48.092;-1.382;2022-12-07T01:23:29;50.80;;;26.23;;
22060;SDS011;11194;48.092;-1.382;2022-12-07T01:25:55;46.05;;;22.92;;
22060;SDS011;11194;48.092;-1.382;2022-12-07T01:28:22;48.00;;;23.38;;
22060;SDS011;11194;48.092;-1.382;2022-12-07T01:30:55;54.33;;;25.85;;
22060;SDS011;11194;48.092;-1.382;2022-12-07T01:33:21;46.38;;;20.75;;
22060;SDS011;11194;48.092;-1.382;2022-12-07T01:35:47;51.13;;;22.63;;
22060;SDS011;11194;48.092;-1.382;2022-12-07T01:38:13;49.58;;;26.40;;
22060;SDS011;11194;48.092;-1.382;2022-12-07T01:40:39;54.70;;;28.10;;
22060;SDS011;11194;48.092;-1.382;2022-12-07T01:43:17;45.47;;;23.40;;
22060;SDS011;11194;48.092;-1.382;2022-12-07T01:45:44;45.78;;;21.20;;
22060;SDS011;11194;48.092;-1.382;2022-12-07T01:48:11;44.45;;;20.85;;
22060;SDS011;11194;48.092;-1.382;2022-12-07T01:50:39;43.17;;;20.23;;
22060;SDS011;11194;48.092;-1.382;2022-12-07T01:53:06;44.63;;;20.70;;
22060;SDS011;11194;48.092;-1.382;2022-12-07T01:55:35;43.58;;;20.05;;
22060;SDS011;11194;48.092;-1.382;2022-12-07T01:58:02;46.25;;;21.13;;
22060;SDS011;11194;48.092;-1.382;2022-12-07T02:00:29;44.88;;;21.02;;
22060;SDS011;11194;48.092;-1.382;2022-12-07T02:03:04;47.88;;;21.92;;
22060;SDS011;11194;48.092;-1.382;2022-12-07T02:05:31;42.38;;;21.13;;
22060;SDS011;11194;48.092;-1.382;2022-12-07T02:07:58;43.95;;;21.13;;
22060;SDS011;11194;48.092;-1.382;2022-12-07T02:10:26;41.55;;;19.63;;
22060;SDS011;11194;48.092;-1.382;2022-12-07T02:13:03;38.03;;;17.95;;
22060;SDS011;11194;48.092;-1.382;2022-12-07T02:15:38;35.92;;;17.52;;
22060;SDS011;11194;48.092;-1.382;2022-12-07T02:18:09;38.22;;;18.00;;
22060;SDS011;11194;48.092;-1.382;2022-12-07T02:20:42;38.20;;;17.85;;
22060;SDS011;11194;48.092;-1.382;2022-12-07T02:28:35;36.17;;;18.02;;
22060;SDS011;11194;48.092;-1.382;2022-12-07T05:00:27;63.20;;;18.73;;
22060;SDS011;11194;48.092;-1.382;2022-12-07T05:02:53;53.20;;;17.10;;
22060;SDS011;11194;48.092;-1.382;2022-12-07T05:05:19;54.92;;;16.02;;
22060;SDS011;11194;48.092;-1.382;2022-12-07T05:07:45;42.85;;;13.65;;
22060;SDS011;11194;48.092;-1.382;2022-12-07T05:10:11;46.13;;;16.63;;
22060;SDS011;11194;48.092;-1.382;2022-12-07T05:12:37;56.95;;;16.45;;
22060;SDS011;11194;48.092;-1.382;2022-12-07T05:15:04;58.55;;;17.45;;
22060;SDS011;11194;48.092;-1.382;2022-12-07T05:17:30;64.90;;;17.25;;
22060;SDS011;11194;48.092;-1.382;2022-12-07T05:19:56;68.68;;;16.58;;
22060;SDS011;11194;48.092;-1.382;2022-12-07T05:22:22;50.72;;;16.60;;
22060;SDS011;11194;48.092;-1.382;2022-12-07T05:24:52;66.38;;;16.80;;
22060;SDS011;11194;48.092;-1.382;2022-12-07T05:27:19;61.17;;;17.10;;
22060;SDS011;11194;48.092;-1.382;2022-12-07T05:29:45;50.13;;;16.33;;
22060;SDS011;11194;48.092;-1.382;2022-12-07T05:32:11;61.58;;;16.70;;
22060;SDS011;11194;48.092;-1.382;2022-12-07T05:34:37;43.55;;;12.75;;
22060;SDS011;11194;48.092;-1.382;2022-12-07T05:37:03;38.42;;;14.27;;
22060;SDS011;11194;48.092;-1.382;2022-12-07T05:39:29;48.80;;;14.88;;
22060;SDS011;11194;48.092;-1.382;2022-12-07T05:41:55;40.78;;;14.60;;
22060;SDS011;11194;48.092;-1.382;2022-12-07T05:44:43;53.10;;;15.20;;
22060;SDS011;11194;48.092;-1.382;2022-12-07T05:47:10;58.78;;;13.60;;
22060;SDS011;11194;48.092;-1.382;2022-12-07T05:49:36;70.68;;;13.05;;
22060;SDS011;11194;48.092;-1.382;2022-12-07T05:52:02;69.30;;;16.38;;
22060;SDS011;11194;48.092;-1.382;2022-12-07T05:54:28;71.07;;;17.27;;
22060;SDS011;11194;48.092;-1.382;2022-12-07T05:56:55;64.63;;;19.70;;
22060;SDS011;11194;48.092;-1.382;2022-12-07T05:59:21;64.80;;;17.40;;
22060;SDS011;11194;48.092;-1.382;2022-12-07T06:01:47;66.32;;;18.92;;
22060;SDS011;11194;48.092;-1.382;2022-12-07T06:04:13;70.07;;;18.83;;
22060;SDS011;11194;48.092;-1.382;2022-12-07T06:06:39;55.22;;;14.90;;
22060;SDS011;11194;48.092;-1.382;2022-12-07T06:09:05;44.22;;;15.35;;
22060;SDS011;11194;48.092;-1.382;2022-12-07T06:11:31;45.88;;;15.93;;
22060;SDS011;11194;48.092;-1.382;2022-12-07T06:14:16;54.35;;;16.02;;
22060;SDS011;11194;48.092;-1.382;2022-12-07T06:16:42;41.40;;;17.17;;
22060;SDS011;11194;48.092;-1.382;2022-12-07T06:19:08;44.88;;;16.17;;
22060;SDS011;11194;48.092;-1.382;2022-12-07T06:21:34;41.92;;;17.05;;
22060;SDS011;11194;48.092;-1.382;2022-12-07T06:24:00;45.60;;;19.65;;
22060;SDS011;11194;48.092;-1.382;2022-12-07T06:26:27;48.05;;;16.55;;
22060;SDS011;11194;48.092;-1.382;2022-12-07T06:28:53;55.53;;;18.38;;
22060;SDS011;11194;48.092;-1.382;2022-12-07T06:31:19;66.15;;;18.83;;
22060;SDS011;11194;48.092;-1.382;2022-12-07T06:33:45;47.58;;;17.73;;
22060;SDS011;11194;48.092;-1.382;2022-12-07T06:36:11;43.83;;;16.55;;
22060;SDS011;11194;48.092;-1.382;2022-12-07T06:38:37;45.35;;;14.02;;
22060;SDS011;11194;48.092;-1.382;2022-12-07T06:41:03;43.75;;;14.20;;
22060;SDS011;11194;48.092;-1.382;2022-12-07T06:43:30;50.38;;;17.33;;
22060;SDS011;11194;48.092;-1.382;2022-12-07T06:45:56;50.50;;;15.82;;
22060;SDS011;11194;48.092;-1.382;2022-12-07T06:48:22;53.65;;;16.70;;
22060;SDS011;11194;48.092;-1.382;2022-12-07T06:50:48;49.50;;;17.73;;
22060;SDS011;11194;48.092;-1.382;2022-12-07T06:53:14;62.05;;;16.33;;
22060;SDS011;11194;48.092;-1.382;2022-12-07T06:55:40;54.88;;;15.82;;
22060;SDS011;11194;48.092;-1.382;2022-12-07T06:58:06;47.40;;;14.98;;
22060;SDS011;11194;48.092;-1.382;2022-12-07T07:00:33;36.10;;;13.32;;
22060;SDS011;11194;48.092;-1.382;2022-12-07T07:03:00;40.58;;;16.80;;
22060;SDS011;11194;48.092;-1.382;2022-12-07T07:05:26;40.88;;;15.55;;
22060;SDS011;11194;48.092;-1.382;2022-12-07T07:07:52;43.97;;;17.23;;
22060;SDS011;11194;48.092;-1.382;2022-12-07T07:10:18;60.85;;;16.13;;
22060;SDS011;11194;48.092;-1.382;2022-12-07T07:12:44;44.58;;;15.43;;
22060;SDS011;11194;48.092;-1.382;2022-12-07T07:15:10;46.70;;;19.15;;
22060;SDS011;11194;48.092;-1.382;2022-12-07T07:17:37;53.30;;;18.05;;
22060;SDS011;11194;48.092;-1.382;2022-12-07T07:20:03;57.13;;;16.20;;
22060;SDS011;11194;48.092;-1.382;2022-12-07T07:22:29;40.67;;;16.98;;
22060;SDS011;11194;48.092;-1.382;2022-12-07T07:24:55;51.20;;;18.98;;
22060;SDS011;11194;48.092;-1.382;2022-12-07T07:27:21;56.85;;;18.40;;
22060;SDS011;11194;48.092;-1.382;2022-12-07T07:29:47;89.45;;;20.42;;
22060;SDS011;11194;48.092;-1.382;2022-12-07T07:32:13;75.53;;;17.15;;
22060;SDS011;11194;48.092;-1.382;2022-12-07T07:34:39;95.15;;;22.98;;
22060;SDS011;11194;48.092;-1.382;2022-12-07T07:37:05;113.82;;;17.45;;
22060;SDS011;11194;48.092;-1.382;2022-12-07T07:39:31;153.90;;;35.42;;
22060;SDS011;11194;48.092;-1.382;2022-12-07T07:41:58;92.57;;;15.32;;
22060;SDS011;11194;48.092;-1.382;2022-12-07T07:44:24;119.47;;;19.27;;
22060;SDS011;11194;48.092;-1.382;2022-12-07T07:46:50;82.03;;;19.20;;
22060;SDS011;11194;48.092;-1.382;2022-12-07T07:49:16;93.88;;;26.60;;
22060;SDS011;11194;48.092;-1.382;2022-12-07T07:51:42;111.43;;;23.45;;
22060;SDS011;11194;48.092;-1.382;2022-12-07T07:54:08;124.93;;;31.27;;
22060;SDS011;11194;48.092;-1.382;2022-12-07T07:56:34;103.50;;;24.08;;
22060;SDS011;11194;48.092;-1.382;2022-12-07T07:59:00;136.45;;;24.33;;
22060;SDS011;11194;48.092;-1.382;2022-12-07T08:01:26;72.70;;;21.13;;
22060;SDS011;11194;48.092;-1.382;2022-12-07T08:03:52;73.07;;;20.77;;
22060;SDS011;11194;48.092;-1.382;2022-12-07T08:06:18;97.88;;;24.08;;
22060;SDS011;11194;48.092;-1.382;2022-12-07T08:08:44;127.57;;;27.08;;
22060;SDS011;11194;48.092;-1.382;2022-12-07T08:11:10;111.43;;;24.92;;
22060;SDS011;11194;48.092;-1.382;2022-12-07T08:13:36;106.38;;;22.90;;
22060;SDS011;11194;48.092;-1.382;2022-12-07T08:16:03;109.05;;;22.95;;
22060;SDS011;11194;48.092;-1.382;2022-12-07T08:18:30;84.57;;;14.63;;
22060;SDS011;11194;48.092;-1.382;2022-12-07T08:20:59;71.00;;;17.80;;
22060;SDS011;11194;48.092;-1.382;2022-12-07T08:23:26;105.22;;;20.80;;
22060;SDS011;11194;48.092;-1.382;2022-12-07T08:25:52;106.00;;;24.25;;
22060;SDS011;11194;48.092;-1.382;2022-12-07T08:28:18;70.00;;;23.23;;
22060;SDS011;11194;48.092;-1.382;2022-12-07T08:30:44;102.47;;;24.38;;
22060;SDS011;11194;48.092;-1.382;2022-12-07T08:33:10;127.45;;;22.95;;
22060;SDS011;11194;48.092;-1.382;2022-12-07T08:35:36;147.30;;;23.30;;
22060;SDS011;11194;48.092;-1.382;2022-12-07T08:38:02;82.10;;;18.95;;
22060;SDS011;11194;48.092;-1.382;2022-12-07T08:40:29;100.07;;;20.60;;
22060;SDS011;11194;48.092;-1.382;2022-12-07T08:42:55;68.57;;;18.50;;
22060;SDS011;11194;48.092;-1.382;2022-12-07T08:45:21;101.10;;;21.85;;
22060;SDS011;11194;48.092;-1.382;2022-12-07T08:47:52;81.90;;;19.45;;
22060;SDS011;11194;48.092;-1.382;2022-12-07T08:50:20;111.50;;;20.90;;
22060;SDS011;11194;48.092;-1.382;2022-12-07T08:52:48;117.72;;;21.92;;
22060;SDS011;11194;48.092;-1.382;2022-12-07T08:55:17;78.50;;;18.60;;
22060;SDS011;11194;48.092;-1.382;2022-12-07T08:57:44;94.20;;;17.50;;
22060;SDS011;11194;48.092;-1.382;2022-12-07T09:00:10;215.05;;;47.67;;
22060;SDS011;11194;48.092;-1.382;2022-12-07T09:02:36;66.88;;;22.08;;
22060;SDS011;11194;48.092;-1.382;2022-12-07T09:05:03;132.80;;;25.85;;
22060;SDS011;11194;48.092;-1.382;2022-12-07T09:07:29;105.57;;;24.63;;
22060;SDS011;11194;48.092;-1.382;2022-12-07T09:09:56;72.72;;;24.30;;
22060;SDS011;11194;48.092;-1.382;2022-12-07T09:12:22;136.30;;;22.77;;
22060;SDS011;11194;48.092;-1.382;2022-12-07T09:14:48;101.43;;;20.73;;
22060;SDS011;11194;48.092;-1.382;2022-12-07T09:17:14;106.78;;;20.63;;
22060;SDS011;11194;48.092;-1.382;2022-12-07T09:19:40;128.95;;;20.80;;
22060;SDS011;11194;48.092;-1.382;2022-12-07T09:22:07;99.13;;;26.33;;
22060;SDS011;11194;48.092;-1.382;2022-12-07T09:24:33;121.68;;;31.13;;
22060;SDS011;11194;48.092;-1.382;2022-12-07T09:26:59;174.70;;;37.97;;
22060;SDS011;11194;48.092;-1.382;2022-12-07T09:29:25;141.77;;;37.22;;
22060;SDS011;11194;48.092;-1.382;2022-12-07T09:31:52;162.57;;;41.70;;
22060;SDS011;11194;48.092;-1.382;2022-12-07T09:34:18;135.82;;;42.20;;
22060;SDS011;11194;48.092;-1.382;2022-12-07T09:36:45;149.07;;;39.03;;
22060;SDS011;11194;48.092;-1.382;2022-12-07T09:39:11;134.25;;;38.60;;
22060;SDS011;11194;48.092;-1.382;2022-12-07T09:41:37;129.45;;;35.83;;
22060;SDS011;11194;48.092;-1.382;2022-12-07T09:44:07;58.35;;;23.80;;
22060;SDS011;11194;48.092;-1.382;2022-12-07T09:46:36;80.13;;;26.95;;
22060;SDS011;11194;48.092;-1.382;2022-12-07T09:49:04;132.88;;;26.83;;
22060;SDS011;11194;48.092;-1.382;2022-12-07T09:51:33;94.32;;;23.63;;
22060;SDS011;11194;48.092;-1.382;2022-12-07T09:54:02;144.18;;;27.33;;
22060;SDS011;11194;48.092;-1.382;2022-12-07T09:56:29;92.40;;;22.02;;
22060;SDS011;11194;48.092;-1.382;2022-12-07T09:58:59;50.65;;;22.08;;
22060;SDS011;11194;48.092;-1.382;2022-12-07T10:01:27;85.65;;;23.48;;
22060;SDS011;11194;48.092;-1.382;2022-12-07T10:03:55;68.95;;;21.92;;
22060;SDS011;11194;48.092;-1.382;2022-12-07T10:06:24;60.10;;;19.60;;
22060;SDS011;11194;48.092;-1.382;2022-12-07T10:08:50;39.38;;;15.60;;
22060;SDS011;11194;48.092;-1.382;2022-12-07T10:11:16;48.35;;;14.63;;
22060;SDS011;11194;48.092;-1.382;2022-12-07T10:13:43;35.13;;;15.43;;
22060;SDS011;11194;48.092;-1.382;2022-12-07T10:18:50;34.50;;;16.27;;
22060;SDS011;11194;48.092;-1.382;2022-12-07T10:23:43;32.30;;;15.35;;
22060;SDS011;11194;48.092;-1.382;2022-12-07T10:26:35;29.92;;;15.45;;
22060;SDS011;11194;48.092;-1.382;2022-12-07T10:29:04;33.47;;;16.30;;
22060;SDS011;11194;48.092;-1.382;2022-12-07T10:31:39;29.92;;;14.90;;
22060;SDS011;11194;48.092;-1.382;2022-12-07T10:34:11;31.42;;;15.63;;
22060;SDS011;11194;48.092;-1.382;2022-12-07T10:36:40;34.28;;;16.30;;
22060;SDS011;11194;48.092;-1.382;2022-12-07T10:39:14;38.28;;;16.58;;
22060;SDS011;11194;48.092;-1.382;2022-12-07T10:41:54;32.17;;;15.70;;
22060;SDS011;11194;48.092;-1.382;2022-12-07T10:44:28;32.92;;;13.80;;
22060;SDS011;11194;48.092;-1.382;2022-12-07T10:52:41;37.42;;;15.73;;
22060;SDS011;11194;48.092;-1.382;2022-12-07T11:00:24;26.27;;;13.32;;
22060;SDS011;11194;48.092;-1.382;2022-12-07T11:05:37;26.02;;;14.40;;
22060;SDS011;11194;48.092;-1.382;2022-12-07T11:08:12;27.27;;;13.98;;
22060;SDS011;11194;48.092;-1.382;2022-12-07T11:10:48;29.60;;;14.27;;
22060;SDS011;11194;48.092;-1.382;2022-12-07T11:18:29;25.63;;;13.63;;
22060;SDS011;11194;48.092;-1.382;2022-12-07T11:24:14;23.70;;;14.02;;
22060;SDS011;11194;48.092;-1.382;2022-12-07T11:36:59;25.73;;;14.27;;
22060;SDS011;11194;48.092;-1.382;2022-12-07T11:39:35;25.95;;;14.57;;
22060;SDS011;11194;48.092;-1.382;2022-12-07T11:42:06;21.42;;;13.35;;
22060;SDS011;11194;48.092;-1.382;2022-12-07T11:49:55;30.70;;;14.52;;
22060;SDS011;11194;48.092;-1.382;2022-12-07T11:54:58;29.85;;;15.73;;
22060;SDS011;11194;48.092;-1.382;2022-12-07T11:57:32;25.60;;;14.25;;
22060;SDS011;11194;48.092;-1.382;2022-12-07T12:00:01;30.15;;;15.32;;
22060;SDS011;11194;48.092;-1.382;2022-12-07T12:05:18;31.98;;;15.93;;
22060;SDS011;11194;48.092;-1.382;2022-12-07T12:07:46;29.45;;;15.10;;
22060;SDS011;11194;48.092;-1.382;2022-12-07T12:12:55;29.02;;;16.10;;
22060;SDS011;11194;48.092;-1.382;2022-12-07T12:20:47;31.35;;;16.75;;
22060;SDS011;11194;48.092;-1.382;2022-12-07T12:23:22;29.20;;;16.77;;
22060;SDS011;11194;48.092;-1.382;2022-12-07T12:25:52;30.65;;;16.30;;
22060;SDS011;11194;48.092;-1.382;2022-12-07T12:28:24;29.83;;;17.20;;
22060;SDS011;11194;48.092;-1.382;2022-12-07T12:33:49;30.08;;;17.67;;
22060;SDS011;11194;48.092;-1.382;2022-12-07T12:43:59;28.17;;;14.70;;
22060;SDS011;11194;48.092;-1.382;2022-12-07T12:51:43;24.45;;;14.85;;
22060;SDS011;11194;48.092;-1.382;2022-12-07T12:59:32;25.95;;;15.63;;
22060;SDS011;11194;48.092;-1.382;2022-12-07T13:10:01;27.25;;;16.88;;
22060;SDS011;11194;48.092;-1.382;2022-12-07T13:12:27;26.85;;;16.65;;
22060;SDS011;11194;48.092;-1.382;2022-12-07T13:20:02;31.30;;;19.38;;
22060;SDS011;11194;48.092;-1.382;2022-12-07T13:27:36;26.60;;;17.02;;
22060;SDS011;11194;48.092;-1.382;2022-12-07T13:30:03;28.38;;;18.00;;
22060;SDS011;11194;48.092;-1.382;2022-12-07T13:32:33;28.42;;;17.77;;
22060;SDS011;11194;48.092;-1.382;2022-12-07T13:35:00;27.00;;;17.02;;
22060;SDS011;11194;48.092;-1.382;2022-12-07T13:37:27;28.67;;;16.63;;
22060;SDS011;11194;48.092;-1.382;2022-12-07T13:39:57;20.90;;;13.50;;
22060;SDS011;11194;48.092;-1.382;2022-12-07T13:42:25;22.58;;;13.93;;
22060;SDS011;11194;48.092;-1.382;2022-12-07T13:44:52;21.13;;;14.18;;
22060;SDS011;11194;48.092;-1.382;2022-12-07T13:50:21;19.42;;;12.77;;
22060;SDS011;11194;48.092;-1.382;2022-12-07T13:52:48;20.73;;;12.68;;
22060;SDS011;11194;48.092;-1.382;2022-12-07T13:55:15;20.23;;;13.32;;
22060;SDS011;11194;48.092;-1.382;2022-12-07T13:57:50;24.05;;;15.95;;
22060;SDS011;11194;48.092;-1.382;2022-12-07T14:02:56;33.70;;;17.65;;
22060;SDS011;11194;48.092;-1.382;2022-12-07T14:05:28;25.80;;;16.08;;
22060;SDS011;11194;48.092;-1.382;2022-12-07T14:12:49;43.63;;;24.48;;
22060;SDS011;11194;48.092;-1.382;2022-12-07T14:15:19;23.55;;;15.38;;
22060;SDS011;11194;48.092;-1.382;2022-12-07T14:17:53;19.67;;;12.30;;
22060;SDS011;11194;48.092;-1.382;2022-12-07T14:22:58;15.63;;;10.32;;
22060;SDS011;11194;48.092;-1.382;2022-12-07T14:25:25;17.15;;;11.23;;
22060;SDS011;11194;48.092;-1.382;2022-12-07T14:27:58;18.48;;;12.18;;
22060;SDS011;11194;48.092;-1.382;2022-12-07T14:30:32;19.52;;;11.82;;
22060;SDS011;11194;48.092;-1.382;2022-12-07T14:32:59;15.15;;;11.55;;
22060;SDS011;11194;48.092;-1.382;2022-12-07T14:35:26;17.33;;;12.10;;
22060;SDS011;11194;48.092;-1.382;2022-12-07T14:37:52;17.98;;;12.35;;
22060;SDS011;11194;48.092;-1.382;2022-12-07T14:40:19;19.35;;;12.00;;
22060;SDS011;11194;48.092;-1.382;2022-12-07T14:42:46;21.38;;;13.65;;
22060;SDS011;11194;48.092;-1.382;2022-12-07T14:45:13;18.60;;;13.30;;
22060;SDS011;11194;48.092;-1.382;2022-12-07T14:47:40;22.95;;;13.82;;
22060;SDS011;11194;48.092;-1.382;2022-12-07T14:50:06;22.33;;;13.55;;
22060;SDS011;11194;48.092;-1.382;2022-12-07T14:52:32;16.33;;;11.52;;
22060;SDS011;11194;48.092;-1.382;2022-12-07T14:54:58;20.20;;;12.95;;
22060;SDS011;11194;48.092;-1.382;2022-12-07T14:57:24;18.77;;;12.82;;
22060;SDS011;11194;48.092;-1.382;2022-12-07T14:59:50;21.20;;;13.75;;
22060;SDS011;11194;48.092;-1.382;2022-12-07T15:02:17;23.25;;;14.65;;
22060;SDS011;11194;48.092;-1.382;2022-12-07T15:04:43;20.40;;;12.98;;
22060;SDS011;11194;48.092;-1.382;2022-12-07T15:07:12;18.10;;;11.95;;
22060;SDS011;11194;48.092;-1.382;2022-12-07T15:09:39;17.98;;;12.13;;
22060;SDS011;11194;48.092;-1.382;2022-12-07T15:12:06;19.30;;;12.55;;
22060;SDS011;11194;48.092;-1.382;2022-12-07T15:14:32;21.70;;;13.05;;
22060;SDS011;11194;48.092;-1.382;2022-12-07T15:16:58;19.80;;;13.77;;
22060;SDS011;11194;48.092;-1.382;2022-12-07T15:19:24;21.10;;;15.07;;
22060;SDS011;11194;48.092;-1.382;2022-12-07T15:21:51;19.45;;;13.90;;
22060;SDS011;11194;48.092;-1.382;2022-12-07T15:24:17;21.50;;;14.07;;
22060;SDS011;11194;48.092;-1.382;2022-12-07T15:26:45;21.83;;;13.15;;
22060;SDS011;11194;48.092;-1.382;2022-12-07T15:29:11;22.05;;;14.15;;
22060;SDS011;11194;48.092;-1.382;2022-12-07T15:31:39;17.33;;;12.73;;
22060;SDS011;11194;48.092;-1.382;2022-12-07T15:34:05;20.90;;;14.27;;
22060;SDS011;11194;48.092;-1.382;2022-12-07T15:36:32;20.27;;;14.95;;
22060;SDS011;11194;48.092;-1.382;2022-12-07T15:38:59;21.40;;;14.00;;
22060;SDS011;11194;48.092;-1.382;2022-12-07T15:41:25;22.20;;;14.93;;
22060;SDS011;11194;48.092;-1.382;2022-12-07T15:43:51;22.08;;;13.68;;
22060;SDS011;11194;48.092;-1.382;2022-12-07T15:46:37;19.23;;;13.27;;
22060;SDS011;11194;48.092;-1.382;2022-12-07T15:49:06;24.35;;;13.70;;
22060;SDS011;11194;48.092;-1.382;2022-12-07T15:51:32;20.52;;;13.80;;
22060;SDS011;11194;48.092;-1.382;2022-12-07T15:53:58;22.58;;;13.90;;
22060;SDS011;11194;48.092;-1.382;2022-12-07T15:56:24;24.15;;;13.82;;
22060;SDS011;11194;48.092;-1.382;2022-12-07T15:58:50;21.30;;;13.80;;
22060;SDS011;11194;48.092;-1.382;2022-12-07T16:01:17;21.38;;;14.07;;
22060;SDS011;11194;48.092;-1.382;2022-12-07T16:03:44;26.83;;;14.68;;
22060;SDS011;11194;48.092;-1.382;2022-12-07T16:06:11;33.90;;;20.23;;
22060;SDS011;11194;48.092;-1.382;2022-12-07T16:08:41;31.25;;;20.35;;
22060;SDS011;11194;48.092;-1.382;2022-12-07T16:11:07;38.65;;;24.02;;
22060;SDS011;11194;48.092;-1.382;2022-12-07T16:13:33;38.38;;;22.42;;
22060;SDS011;11194;48.092;-1.382;2022-12-07T16:16:07;32.60;;;21.55;;
22060;SDS011;11194;48.092;-1.382;2022-12-07T16:18:33;32.20;;;21.10;;
22060;SDS011;11194;48.092;-1.382;2022-12-07T16:20:59;34.75;;;22.63;;
22060;SDS011;11194;48.092;-1.382;2022-12-07T16:23:26;31.63;;;20.25;;
22060;SDS011;11194;48.092;-1.382;2022-12-07T16:25:52;26.35;;;17.38;;
22060;SDS011;11194;48.092;-1.382;2022-12-07T16:28:18;28.17;;;18.45;;
22060;SDS011;11194;48.092;-1.382;2022-12-07T16:30:44;30.75;;;19.45;;
22060;SDS011;11194;48.092;-1.382;2022-12-07T16:33:10;28.98;;;18.85;;
22060;SDS011;11194;48.092;-1.382;2022-12-07T16:35:39;42.67;;;24.13;;
22060;SDS011;11194;48.092;-1.382;2022-12-07T16:38:06;38.17;;;22.88;;
22060;SDS011;11194;48.092;-1.382;2022-12-07T16:40:33;48.83;;;26.40;;
22060;SDS011;11194;48.092;-1.382;2022-12-07T16:42:59;61.70;;;33.20;;
22060;SDS011;11194;48.092;-1.382;2022-12-07T16:45:25;85.80;;;43.08;;
22060;SDS011;11194;48.092;-1.382;2022-12-07T16:47:51;95.80;;;47.60;;
22060;SDS011;11194;48.092;-1.382;2022-12-07T16:50:17;88.97;;;44.63;;
22060;SDS011;11194;48.092;-1.382;2022-12-07T16:52:43;81.25;;;42.63;;
22060;SDS011;11194;48.092;-1.382;2022-12-07T16:55:10;86.13;;;43.40;;
22060;SDS011;11194;48.092;-1.382;2022-12-07T16:57:36;73.75;;;39.58;;
22060;SDS011;11194;48.092;-1.382;2022-12-07T17:00:03;70.43;;;38.78;;
22060;SDS011;11194;48.092;-1.382;2022-12-07T17:02:29;71.30;;;36.95;;
22060;SDS011;11194;48.092;-1.382;2022-12-07T17:04:55;69.70;;;37.30;;
22060;SDS011;11194;48.092;-1.382;2022-12-07T17:07:21;60.15;;;35.80;;
22060;SDS011;11194;48.092;-1.382;2022-12-07T17:09:47;59.95;;;34.47;;
22060;SDS011;11194;48.092;-1.382;2022-12-07T17:12:13;55.80;;;31.88;;
22060;SDS011;11194;48.092;-1.382;2022-12-07T17:14:39;56.60;;;32.22;;
22060;SDS011;11194;48.092;-1.382;2022-12-07T17:17:24;57.75;;;33.88;;
22060;SDS011;11194;48.092;-1.382;2022-12-07T17:19:50;64.63;;;35.65;;
22060;SDS011;11194;48.092;-1.382;2022-12-07T17:22:17;65.97;;;37.92;;
22060;SDS011;11194;48.092;-1.382;2022-12-07T17:24:43;66.22;;;37.22;;
22060;SDS011;11194;48.092;-1.382;2022-12-07T17:27:09;61.70;;;36.20;;
22060;SDS011;11194;48.092;-1.382;2022-12-07T17:29:35;64.85;;;36.17;;
22060;SDS011;11194;48.092;-1.382;2022-12-07T17:32:01;66.22;;;37.20;;
22060;SDS011;11194;48.092;-1.382;2022-12-07T17:34:27;76.25;;;42.15;;
22060;SDS011;11194;48.092;-1.382;2022-12-07T17:36:53;97.50;;;52.20;;
22060;SDS011;11194;48.092;-1.382;2022-12-07T17:39:19;84.85;;;48.47;;
22060;SDS011;11194;48.092;-1.382;2022-12-07T17:41:46;104.28;;;53.58;;
22060;SDS011;11194;48.092;-1.382;2022-12-07T17:44:31;94.30;;;49.53;;
22060;SDS011;11194;48.092;-1.382;2022-12-07T17:46:57;85.25;;;46.85;;
22060;SDS011;11194;48.092;-1.382;2022-12-07T17:49:26;83.72;;;45.38;;
22060;SDS011;11194;48.092;-1.382;2022-12-07T17:51:52;87.93;;;46.50;;
22060;SDS011;11194;48.092;-1.382;2022-12-07T17:54:37;81.53;;;43.60;;
22060;SDS011;11194;48.092;-1.382;2022-12-07T17:57:03;100.95;;;51.17;;
22060;SDS011;11194;48.092;-1.382;2022-12-07T17:59:29;101.88;;;49.17;;
22060;SDS011;11194;48.092;-1.382;2022-12-07T18:01:55;104.80;;;53.10;;
22060;SDS011;11194;48.092;-1.382;2022-12-07T18:04:21;92.38;;;49.00;;
22060;SDS011;11194;48.092;-1.382;2022-12-07T18:06:47;87.25;;;45.22;;
22060;SDS011;11194;48.092;-1.382;2022-12-07T18:09:13;78.90;;;42.58;;
22060;SDS011;11194;48.092;-1.382;2022-12-07T18:11:40;65.78;;;38.00;;
22060;SDS011;11194;48.092;-1.382;2022-12-07T18:14:06;80.47;;;40.25;;
22060;SDS011;11194;48.092;-1.382;2022-12-07T18:16:32;75.57;;;38.78;;
22060;SDS011;11194;48.092;-1.382;2022-12-07T18:19:00;85.25;;;44.38;;
22060;SDS011;11194;48.092;-1.382;2022-12-07T18:21:26;97.75;;;45.97;;
22060;SDS011;11194;48.092;-1.382;2022-12-07T18:23:53;118.63;;;44.72;;
22060;SDS011;11194;48.092;-1.382;2022-12-07T18:26:20;105.47;;;43.60;;
22060;SDS011;11194;48.092;-1.382;2022-12-07T18:28:47;178.55;;;50.45;;
22060;SDS011;11194;48.092;-1.382;2022-12-07T18:31:13;235.00;;;55.35;;